Time;durP1;ratioP1;P1;durP2;ratioP2;P2;SDS_P1;SDS_P2;PMS_P1;PMS_P2;Temp;Humidity;BMP_temperature;BMP_pressure;BME280_temperature;BME280_humidity;BME280_pressure;Samples;Min_cycle;Max_cycle;Signal;HPM_P1;HPM_P2
2022/11/17 00:00:41;;;;;;;39.45;20.62;;;;;;;10.61;85.02;98450.00;4485391;31;33573;-80
2022/11/17 00:03:14;;;;;;;40.30;20.55;;;;;;;10.77;83.53;98464.16;4485712;31;33976;-79
2022/11/17 00:05:42;;;;;;;38.15;21.73;;;;;;;10.72;83.63;98456.31;4485915;31;33902;-79
2022/11/17 00:08:10;;;;;;;42.10;21.00;;;;;;;9.76;88.55;98457.38;4485603;31;33872;-81
2022/11/17 00:10:38;;;;;;;41.67;22.08;;;;;;;9.23;92.40;98473.12;4485864;31;33028;-78
2022/11/17 00:15:51;;;;;;;42.28;20.55;;;;;;;9.28;94.83;98471.56;4485703;31;34678;-79
2022/11/17 00:21:17;;;;;;;38.20;20.62;;;;;;;9.12;93.56;98459.94;4479411;31;33541;-78
2022/11/17 00:23:48;;;;;;;38.30;19.23;;;;;;;9.59;91.42;98462.97;4485523;31;33855;-79
2022/11/17 00:26:19;;;;;;;39.10;19.23;;;;;;;10.11;88.21;98457.41;4484767;31;33653;-78
2022/11/17 00:28:50;;;;;;;37.55;19.58;;;;;;;10.72;83.90;98453.72;4485699;31;33732;-79
2022/11/17 00:34:04;;;;;;;39.80;19.55;;;;;;;10.69;84.56;98448.44;4486768;31;34651;-80
2022/11/17 00:36:38;;;;;;;37.17;20.00;;;;;;;10.35;86.39;98458.03;4479074;31;33718;-81
2022/11/17 00:39:07;;;;;;;38.75;19.23;;;;;;;10.76;84.17;98455.53;4484710;31;33773;-79
2022/11/17 00:41:35;;;;;;;37.03;18.87;;;;;;;11.09;82.61;98453.66;4481222;31;33304;-80
2022/11/17 00:44:02;;;;;;;37.40;18.58;;;;;;;11.48;80.62;98453.56;4487423;31;33639;-81
2022/11/17 00:46:30;;;;;;;34.92;18.42;;;;;;;10.82;83.07;98449.62;4485550;31;33655;-81
2022/11/17 00:48:58;;;;;;;40.60;20.55;;;;;;;10.91;82.90;98457.56;4482803;31;34053;-81
2022/11/17 00:51:25;;;;;;;36.47;19.33;;;;;;;10.58;84.57;98452.50;4484595;31;33223;-81
2022/11/17 00:53:53;;;;;;;37.55;19.23;;;;;;;10.82;83.76;98449.62;4485076;31;33659;-80
2022/11/17 00:56:21;;;;;;;37.95;19.55;;;;;;;10.94;83.10;98444.69;4484585;31;32922;-81
2022/11/17 00:58:49;;;;;;;38.05;19.10;;;;;;;10.96;83.18;98445.59;4482926;32;32511;-79
2022/11/17 01:01:16;;;;;;;33.38;17.92;;;;;;;10.83;84.02;98448.75;4484425;31;34596;-81
2022/11/17 01:03:44;;;;;;;34.35;18.73;;;;;;;10.94;82.42;98441.22;4483289;31;33755;-79
2022/11/17 01:06:16;;;;;;;34.17;18.80;;;;;;;10.87;83.17;98434.16;4484397;31;33808;-80
2022/11/17 01:08:44;;;;;;;33.13;17.40;;;;;;;10.30;85.76;98436.34;4484498;31;33975;-78
2022/11/17 01:11:15;;;;;;;32.80;18.73;;;;;;;11.41;79.78;98420.56;4484655;31;33296;-80
2022/11/17 01:13:44;;;;;;;33.67;18.60;;;;;;;11.39;79.37;98430.03;4484617;31;33513;-79
2022/11/17 01:16:17;;;;;;;33.33;18.33;;;;;;;11.09;80.10;98418.22;4469775;32;32310;-81
2022/11/17 01:18:46;;;;;;;34.25;17.83;;;;;;;11.23;80.12;98420.22;4479333;31;34007;-80
2022/11/17 01:21:15;;;;;;;35.08;18.33;;;;;;;10.48;84.01;98414.31;4484778;31;34077;-81
2022/11/17 01:23:44;;;;;;;36.33;19.70;;;;;;;10.28;85.59;98406.94;4484222;31;33366;-79
2022/11/17 01:26:20;;;;;;;39.08;20.15;;;;;;;9.23;89.72;98412.03;4484586;31;33609;-80
2022/11/17 01:28:47;;;;;;;39.08;20.30;;;;;;;8.77;93.59;98408.13;4482095;32;33243;-80
2022/11/17 01:31:18;;;;;;;37.95;19.87;;;;;;;10.09;86.87;98410.78;4484240;31;33313;-79
2022/11/17 01:33:46;;;;;;;35.45;19.83;;;;;;;9.56;89.24;98413.78;4484461;31;33941;-78
2022/11/17 01:36:14;;;;;;;40.05;20.80;;;;;;;9.48;90.91;98411.81;4481082;31;33987;-80
2022/11/17 01:38:41;;;;;;;39.05;21.40;;;;;;;8.46;96.67;98414.94;4484041;31;34024;-80
2022/11/17 01:41:20;;;;;;;41.17;21.50;;;;;;;9.35;91.89;98415.75;4483632;31;33988;-79
2022/11/17 01:43:50;;;;;;;36.22;20.10;;;;;;;9.58;89.49;98414.69;4481933;31;32764;-79
2022/11/17 01:46:44;;;;;;;39.97;20.92;;;;;;;10.16;85.73;98420.47;4483561;31;34153;-81
2022/11/17 01:49:13;;;;;;;35.85;19.05;;;;;;;10.18;84.97;98407.56;4479035;32;33883;-81
2022/11/17 01:51:44;;;;;;;34.83;18.20;;;;;;;10.66;83.20;98409.53;4482255;31;33816;-78
2022/11/17 01:54:14;;;;;;;36.38;19.55;;;;;;;9.59;89.03;98416.41;4482657;31;35502;-79
2022/11/17 01:56:44;;;;;;;35.45;18.67;;;;;;;10.00;86.84;98428.66;4482419;32;33501;-80
2022/11/17 01:59:17;;;;;;;33.85;19.52;;;;;;;9.82;88.05;98424.78;4486542;31;33847;-82
2022/11/17 02:01:54;;;;;;;35.05;19.08;;;;;;;10.35;85.04;98426.09;4479154;31;33327;-80
2022/11/17 02:04:35;;;;;;;38.17;20.05;;;;;;;8.72;91.90;98430.34;4482402;32;34731;-79
2022/11/17 02:07:23;;;;;;;37.90;19.23;;;;;;;8.61;94.17;98429.13;4482972;31;33649;-77
2022/11/17 02:09:52;;;;;;;41.40;21.58;;;;;;;8.26;96.90;98428.88;4485298;31;34586;-80
2022/11/17 02:12:22;;;;;;;46.00;22.40;;;;;;;8.30;97.37;98432.44;4485980;31;33396;-79
2022/11/17 02:14:50;;;;;;;45.63;20.62;;;;;;;8.37;97.14;98430.09;4481268;32;33060;-79
2022/11/17 02:17:18;;;;;;;44.22;21.80;;;;;;;8.39;98.31;98437.91;4483708;31;33666;-78
2022/11/17 02:19:55;;;;;;;42.30;20.85;;;;;;;8.30;97.66;98420.41;4470578;31;34364;-79
2022/11/17 02:22:47;;;;;;;43.60;20.83;;;;;;;8.62;97.23;98418.00;4480381;32;33396;-80
2022/11/17 02:25:30;;;;;;;44.15;21.60;;;;;;;7.83;100.00;98420.63;4483551;31;33726;-78
2022/11/17 02:28:22;;;;;;;43.95;22.10;;;;;;;9.20;93.01;98408.47;4485510;31;34461;-79
2022/11/17 02:31:15;;;;;;;42.28;20.95;;;;;;;8.41;96.04;98406.19;4484904;31;33796;-78
2022/11/17 02:33:48;;;;;;;42.65;20.20;;;;;;;8.56;95.89;98415.25;4480275;31;34218;-79
2022/11/17 02:36:17;;;;;;;41.37;20.50;;;;;;;8.66;95.72;98406.94;4481574;31;33995;-78
2022/11/17 02:39:19;;;;;;;41.47;21.77;;;;;;;8.75;94.86;98394.31;4481212;31;33996;-79
2022/11/17 02:41:57;;;;;;;44.00;21.55;;;;;;;8.64;94.35;98393.97;4482323;31;33816;-78
2022/11/17 02:44:53;;;;;;;40.47;21.65;;;;;;;8.12;98.14;98402.66;4477421;31;34318;-80
2022/11/17 02:47:24;;;;;;;39.70;19.52;;;;;;;7.95;99.27;98390.94;4486354;31;33902;-81
2022/11/17 02:50:05;;;;;;;42.83;20.20;;;;;;;8.93;94.09;98391.38;4485889;31;33682;-82
2022/11/17 02:52:33;;;;;;;38.90;20.80;;;;;;;9.18;91.02;98397.22;4487807;31;32335;-82
2022/11/17 02:55:02;;;;;;;39.75;19.98;;;;;;;9.25;89.93;98402.63;4493680;31;33449;-79
2022/11/17 02:57:32;;;;;;;44.33;20.80;;;;;;;8.53;93.95;98407.41;4497506;31;33892;-79
2022/11/17 03:00:03;;;;;;;41.90;21.45;;;;;;;7.92;98.34;98404.59;4490287;31;33113;-82
2022/11/17 03:03:03;;;;;;;41.47;19.55;;;;;;;8.17;96.67;98398.53;4492689;31;33162;-81
2022/11/17 03:05:48;;;;;;;41.28;20.33;;;;;;;8.00;97.48;98397.12;4487209;31;34345;-81
2022/11/17 03:08:29;;;;;;;39.30;19.77;;;;;;;8.80;94.03;98379.81;4475561;31;33828;-82
2022/11/17 03:11:02;;;;;;;43.53;20.52;;;;;;;9.49;88.96;98378.25;4484203;32;33577;-82
2022/11/17 03:13:39;;;;;;;38.15;20.37;;;;;;;7.70;98.03;98386.66;4490464;31;33931;-80
2022/11/17 03:16:27;;;;;;;40.03;20.67;;;;;;;8.74;94.07;98383.94;4483944;31;33507;-80
2022/11/17 03:19:17;;;;;;;40.60;19.05;;;;;;;9.13;91.56;98376.41;4491494;31;33693;-80
2022/11/17 03:22:00;;;;;;;36.65;19.50;;;;;;;8.96;89.14;98372.50;4484032;31;33727;-82
2022/11/17 03:24:30;;;;;;;37.85;20.92;;;;;;;8.34;93.84;98377.53;4488806;31;33469;-80
2022/11/17 03:27:02;;;;;;;40.38;19.08;;;;;;;8.72;92.44;98370.97;4492907;31;33552;-81
2022/11/17 03:29:31;;;;;;;38.90;20.02;;;;;;;9.37;89.27;98367.59;4477028;31;33761;-83
2022/11/17 03:32:02;;;;;;;40.00;19.70;;;;;;;9.08;89.04;98365.09;4486824;31;34683;-83
2022/11/17 03:34:36;;;;;;;34.47;17.67;;;;;;;10.00;85.32;98362.28;4487100;31;35899;-81
2022/11/17 03:37:05;;;;;;;30.73;16.97;;;;;;;10.02;85.12;98370.06;4493794;31;33460;-82
2022/11/17 03:39:34;;;;;;;34.17;18.17;;;;;;;9.75;84.92;98380.63;4486367;31;33617;-83
2022/11/17 03:42:25;;;;;;;35.78;17.60;;;;;;;9.37;86.54;98388.28;4485292;31;33680;-83
2022/11/17 03:44:55;;;;;;;40.17;20.25;;;;;;;9.40;87.10;98402.13;4484365;31;33722;-83
2022/11/17 03:47:25;;;;;;;36.28;17.23;;;;;;;9.14;89.00;98411.75;4483414;32;33705;-83
2022/11/17 03:50:33;;;;;;;33.10;17.35;;;;;;;9.71;85.25;98412.41;4475196;31;33417;-80
2022/11/17 03:53:01;;;;;;;33.30;17.65;;;;;;;9.71;84.96;98426.22;4483681;32;34795;-80
2022/11/17 03:56:03;;;;;;;31.40;16.65;;;;;;;9.69;83.94;98429.59;4491524;31;33559;-81
2022/11/17 03:58:32;;;;;;;34.60;17.02;;;;;;;9.52;84.98;98435.22;4436139;32;33432;-82
2022/11/17 04:01:02;;;;;;;30.05;16.67;;;;;;;9.48;85.22;98438.53;4491838;31;33773;-80
2022/11/17 04:03:33;;;;;;;36.67;18.33;;;;;;;9.85;83.38;98434.34;4483423;31;33945;-80
2022/11/17 04:06:01;;;;;;;32.03;16.48;;;;;;;9.88;82.68;98429.22;4481286;31;33668;-80
2022/11/17 04:08:29;;;;;;;37.25;19.05;;;;;;;9.86;83.21;98430.91;4490825;31;34362;-81
2022/11/17 04:16:29;;;;;;;39.45;18.42;;;;;;;9.57;85.05;98428.44;4490913;31;33778;-82
2022/11/17 04:18:56;;;;;;;35.00;17.83;;;;;;;9.64;85.20;98414.84;4484918;31;33080;-81
2022/11/17 04:21:25;;;;;;;37.33;19.23;;;;;;;9.22;86.10;98419.72;4484785;31;33922;-81
2022/11/17 04:23:53;;;;;;;36.90;18.83;;;;;;;8.92;90.22;98424.88;4496888;31;33487;-81
2022/11/17 04:29:07;;;;;;;33.90;17.02;;;;;;;8.27;94.11;98425.50;4488718;31;33463;-81
2022/11/17 04:31:34;;;;;;;36.58;16.80;;;;;;;9.20;89.17;98435.19;4494710;31;32510;-82
2022/11/17 04:34:03;;;;;;;36.20;17.70;;;;;;;8.66;90.88;98422.41;4487786;31;33889;-80
2022/11/17 04:36:44;;;;;;;32.03;16.65;;;;;;;9.66;87.26;98417.47;4486131;31;33555;-81
2022/11/17 04:39:13;;;;;;;34.95;17.83;;;;;;;9.88;84.88;98418.88;4484857;31;33237;-81
2022/11/17 04:41:56;;;;;;;30.15;16.50;;;;;;;9.21;86.94;98420.56;4485489;31;34449;-82
2022/11/17 04:44:25;;;;;;;32.72;17.12;;;;;;;9.53;87.01;98421.44;4489855;31;34814;-82
2022/11/17 04:46:54;;;;;;;33.90;17.17;;;;;;;9.59;85.37;98420.72;4485370;31;33345;-81
2022/11/17 04:49:23;;;;;;;36.08;17.62;;;;;;;8.56;91.02;98435.88;4494369;31;34111;-80
2022/11/17 04:51:51;;;;;;;40.08;18.70;;;;;;;9.16;87.72;98433.34;4487782;31;33831;-80
2022/11/17 04:54:22;;;;;;;34.90;16.70;;;;;;;7.81;94.25;98432.59;4483750;31;32404;-80
2022/11/17 04:56:51;;;;;;;41.30;18.75;;;;;;;8.04;94.08;98425.63;4495032;31;33617;-81
2022/11/17 04:59:19;;;;;;;39.08;19.15;;;;;;;7.62;95.85;98430.22;4489330;31;33147;-81
2022/11/17 05:01:46;;;;;;;38.97;19.50;;;;;;;7.30;99.00;98437.69;4486979;31;33853;-80
2022/11/17 05:04:54;;;;;;;39.38;18.73;;;;;;;7.12;100.00;98447.34;4488995;31;33740;-83
2022/11/17 05:07:07;;;;;;;42.00;20.60;;;;;;;7.33;99.84;98453.25;4494993;31;33640;-80
2022/11/17 05:09:34;;;;;;;47.03;20.95;;;;;;;7.55;98.72;98454.03;4488876;31;34238;-80
2022/11/17 05:14:49;;;;;;;46.75;21.40;;;;;;;6.97;100.00;98463.97;4492859;31;33781;-80
2022/11/17 05:17:16;;;;;;;44.72;21.48;;;;;;;7.05;100.00;98459.09;4495354;31;34226;-81
2022/11/17 05:19:45;;;;;;;44.22;20.30;;;;;;;7.24;100.00;98461.56;4476347;31;34215;-81
2022/11/17 05:25:03;;;;;;;43.70;20.17;;;;;;;7.38;100.00;98466.28;4491132;31;34649;-81
2022/11/17 05:27:32;;;;;;;40.00;20.05;;;;;;;7.44;100.00;98466.53;4486603;31;33845;-82
2022/11/17 05:30:01;;;;;;;42.92;19.90;;;;;;;7.56;100.00;98469.53;4485286;31;33296;-80
2022/11/17 05:32:28;;;;;;;40.90;19.05;;;;;;;7.36;100.00;98470.50;4483136;31;32404;-82
2022/11/17 05:34:56;;;;;;;41.65;20.05;;;;;;;7.47;100.00;98461.47;4487449;31;34032;-80
2022/11/17 05:37:23;;;;;;;36.42;18.60;;;;;;;7.59;100.00;98456.78;4483950;31;33960;-82
2022/11/17 05:39:51;;;;;;;39.60;20.23;;;;;;;7.99;98.99;98447.78;4483770;31;33044;-82
2022/11/17 05:42:18;;;;;;;39.05;18.15;;;;;;;7.67;99.13;98451.88;4488303;31;34078;-80
2022/11/17 05:44:47;;;;;;;38.72;19.27;;;;;;;7.40;100.00;98454.37;4483797;31;31920;-80
2022/11/17 05:47:14;;;;;;;39.70;20.30;;;;;;;7.29;100.00;98456.56;4493426;31;34701;-83
2022/11/17 05:49:42;;;;;;;42.42;19.00;;;;;;;7.61;99.15;98465.44;4491133;31;33058;-82
2022/11/17 05:52:09;;;;;;;42.88;20.02;;;;;;;7.44;100.00;98466.53;4487266;31;33627;-81
2022/11/17 05:54:37;;;;;;;40.92;19.08;;;;;;;7.91;98.63;98477.63;4490727;31;33611;-81
2022/11/17 05:57:08;;;;;;;43.00;19.98;;;;;;;7.79;99.41;98474.63;4489142;31;33883;-81
2022/11/17 05:59:38;;;;;;;43.75;19.10;;;;;;;7.37;100.00;98472.28;4483033;32;34108;-82
2022/11/17 06:02:10;;;;;;;43.50;20.23;;;;;;;7.11;100.00;98481.63;4487788;31;34348;-80
2022/11/17 06:04:38;;;;;;;42.28;17.58;;;;;;;7.06;100.00;98490.06;4489042;31;34376;-81
2022/11/17 06:07:05;;;;;;;46.58;20.12;;;;;;;7.14;100.00;98487.75;4486266;31;34012;-83
2022/11/17 06:09:34;;;;;;;53.40;23.40;;;;;;;7.06;100.00;98486.59;4489395;31;33260;-83
2022/11/17 06:12:02;;;;;;;53.30;24.27;;;;;;;7.08;100.00;98484.97;4488623;31;32785;-82
2022/11/17 06:14:33;;;;;;;50.05;21.15;;;;;;;7.18;100.00;98481.03;4497249;31;33002;-80
2022/11/17 06:17:04;;;;;;;47.62;21.17;;;;;;;7.33;100.00;98483.31;4487067;31;33653;-81
2022/11/17 06:19:41;;;;;;;42.22;20.02;;;;;;;7.08;100.00;98488.41;4479262;31;32570;-80
2022/11/17 06:22:09;;;;;;;43.17;20.55;;;;;;;7.19;100.00;98481.09;4486886;31;33860;-81
2022/11/17 06:24:42;;;;;;;43.17;20.65;;;;;;;7.24;100.00;98484.72;4489810;31;33726;-81
2022/11/17 06:27:11;;;;;;;42.92;20.27;;;;;;;7.48;100.00;98479.56;4486840;31;33931;-81
2022/11/17 06:29:39;;;;;;;39.75;17.85;;;;;;;7.10;100.00;98475.59;4484858;31;34209;-81
2022/11/17 06:32:17;;;;;;;38.05;18.48;;;;;;;8.32;95.87;98472.06;4483492;31;34067;-81
2022/11/17 06:34:45;;;;;;;39.70;19.15;;;;;;;8.65;92.02;98477.44;4484176;31;32651;-81
2022/11/17 06:37:22;;;;;;;37.97;17.42;;;;;;;7.38;99.18;98471.44;4483645;32;34364;-82
2022/11/17 06:39:49;;;;;;;40.10;19.35;;;;;;;7.66;98.53;98479.34;4486116;31;33120;-82
2022/11/17 06:42:17;;;;;;;39.50;18.87;;;;;;;8.02;94.85;98478.84;4489244;31;33758;-81
2022/11/17 06:44:44;;;;;;;38.45;18.48;;;;;;;8.16;94.82;98491.34;4486473;31;33728;-82
2022/11/17 06:47:12;;;;;;;36.33;17.37;;;;;;;8.22;94.08;98488.94;4478176;31;33720;-82
2022/11/17 06:49:39;;;;;;;39.13;18.87;;;;;;;7.32;98.60;98502.13;4484697;31;34250;-79
2022/11/17 06:52:07;;;;;;;39.75;19.17;;;;;;;7.14;99.57;98508.38;4484083;31;34482;-80
2022/11/17 06:54:34;;;;;;;39.42;17.42;;;;;;;7.29;99.18;98514.09;4485413;31;32648;-83
2022/11/17 06:57:01;;;;;;;41.40;19.40;;;;;;;7.59;97.30;98503.16;4487364;31;34184;-82
2022/11/17 06:59:29;;;;;;;37.28;18.17;;;;;;;7.33;98.96;98509.06;4487530;31;33395;-82
2022/11/17 07:01:56;;;;;;;38.25;18.12;;;;;;;7.80;97.76;98512.44;4484853;31;33881;-81
2022/11/17 07:04:24;;;;;;;40.92;17.35;;;;;;;7.02;100.00;98513.06;4485520;31;34534;-82
2022/11/17 07:06:51;;;;;;;39.05;17.95;;;;;;;6.91;100.00;98514.34;4491089;31;33549;-80
2022/11/17 07:09:19;;;;;;;46.45;19.25;;;;;;;6.80;100.00;98517.41;4497197;31;33526;-84
2022/11/17 07:11:46;;;;;;;42.75;20.50;;;;;;;6.77;100.00;98526.69;4488848;31;33738;-80
2022/11/17 07:14:14;;;;;;;43.65;19.30;;;;;;;7.02;100.00;98520.78;4497535;31;34514;-80
2022/11/17 07:16:42;;;;;;;44.65;19.87;;;;;;;7.21;100.00;98514.63;4492524;31;33973;-83
2022/11/17 07:19:09;;;;;;;41.85;17.98;;;;;;;7.32;100.00;98515.03;4491283;31;34087;-79
2022/11/17 07:21:37;;;;;;;44.63;18.67;;;;;;;7.45;100.00;98519.81;4487667;31;34547;-82
2022/11/17 07:24:05;;;;;;;39.47;17.90;;;;;;;7.45;100.00;98509.50;4498339;31;33933;-81
2022/11/17 07:26:32;;;;;;;42.62;18.42;;;;;;;7.60;100.00;98515.22;4487336;31;33749;-81
2022/11/17 07:29:00;;;;;;;40.90;18.33;;;;;;;7.55;100.00;98521.00;4484987;31;33146;-82
2022/11/17 07:31:27;;;;;;;38.85;18.40;;;;;;;7.58;100.00;98528.88;4485025;31;34761;-82
2022/11/17 07:33:55;;;;;;;33.97;16.30;;;;;;;7.71;100.00;98532.75;4490016;31;33419;-80
2022/11/17 07:36:22;;;;;;;37.58;17.80;;;;;;;8.45;97.76;98513.81;4484520;31;34511;-82
2022/11/17 07:38:49;;;;;;;39.20;17.27;;;;;;;7.93;97.81;98517.22;4484061;31;33288;-81
2022/11/17 07:41:17;;;;;;;36.75;16.40;;;;;;;7.93;97.96;98524.94;4485721;31;33718;-83
2022/11/17 07:43:44;;;;;;;37.53;16.35;;;;;;;7.83;99.86;98530.63;4485705;31;33970;-81
2022/11/17 07:46:13;;;;;;;35.53;16.52;;;;;;;7.69;100.00;98530.13;4493565;31;34132;-82
2022/11/17 07:48:42;;;;;;;34.95;16.48;;;;;;;7.77;99.97;98530.41;4492373;31;33427;-80
2022/11/17 07:51:11;;;;;;;34.28;16.70;;;;;;;7.74;100.00;98532.88;4490603;31;34016;-81
2022/11/17 07:53:38;;;;;;;34.63;16.92;;;;;;;7.67;100.00;98532.66;4487493;31;34698;-81
2022/11/17 07:56:07;;;;;;;33.95;16.37;;;;;;;7.59;99.74;98531.50;4498322;31;34581;-82
2022/11/17 07:58:36;;;;;;;29.02;14.40;;;;;;;7.73;98.46;98525.97;4487486;31;33524;-81
2022/11/17 08:01:09;;;;;;;30.23;15.25;;;;;;;7.83;98.51;98528.91;4492920;31;33481;-81
2022/11/17 08:03:37;;;;;;;31.83;14.57;;;;;;;7.88;97.95;98529.09;4487063;31;33855;-82
2022/11/17 08:06:05;;;;;;;31.10;14.87;;;;;;;8.30;97.49;98518.44;4485441;31;33763;-81
2022/11/17 08:08:33;;;;;;;31.10;15.45;;;;;;;8.16;97.02;98527.44;4482369;31;34617;-81
2022/11/17 08:11:02;;;;;;;33.20;14.73;;;;;;;8.12;96.38;98526.47;4485366;31;34314;-81
2022/11/17 08:13:29;;;;;;;28.70;14.75;;;;;;;7.81;98.07;98520.25;4485762;31;33792;-81
2022/11/17 08:15:58;;;;;;;29.92;15.27;;;;;;;8.31;94.99;98527.97;4488746;31;33734;-81
2022/11/17 08:18:26;;;;;;;30.95;15.75;;;;;;;8.50;94.66;98529.47;4489182;31;33580;-80
2022/11/17 08:21:04;;;;;;;30.85;15.98;;;;;;;8.69;93.85;98530.91;4476104;32;33831;-82
2022/11/17 08:23:33;;;;;;;29.20;14.60;;;;;;;8.67;93.30;98535.16;4489285;31;34060;-80
2022/11/17 08:26:01;;;;;;;32.45;16.10;;;;;;;8.33;95.08;98531.47;4494609;31;34357;-81
2022/11/17 08:28:29;;;;;;;29.15;14.23;;;;;;;8.29;97.15;98539.94;4482465;31;33449;-81
2022/11/17 08:30:59;;;;;;;30.92;15.10;;;;;;;8.11;97.27;98549.62;4491102;31;33862;-81
2022/11/17 08:33:27;;;;;;;29.15;14.40;;;;;;;8.12;98.02;98547.09;4497081;31;33000;-80
2022/11/17 08:35:59;;;;;;;31.25;16.17;;;;;;;8.20;97.68;98552.50;4487760;31;34047;-81
2022/11/17 08:38:29;;;;;;;26.27;13.48;;;;;;;8.51;97.04;98545.84;4490638;31;34442;-81
2022/11/17 08:41:05;;;;;;;25.35;13.82;;;;;;;8.33;96.03;98553.81;4490818;31;33593;-81
2022/11/17 08:43:33;;;;;;;24.48;12.60;;;;;;;8.36;95.11;98547.03;4482703;31;34908;-81
2022/11/17 08:46:01;;;;;;;28.38;14.63;;;;;;;8.55;95.23;98555.44;4476978;31;33453;-81
2022/11/17 08:48:30;;;;;;;26.42;13.77;;;;;;;8.53;94.52;98554.50;4483502;31;33074;-81
2022/11/17 08:51:02;;;;;;;24.02;13.20;;;;;;;8.33;94.80;98572.75;4485872;31;34187;-82
2022/11/17 08:53:29;;;;;;;27.40;12.90;;;;;;;8.37;94.87;98571.16;4482936;32;34370;-81
2022/11/17 08:55:57;;;;;;;26.52;14.15;;;;;;;8.20;95.56;98574.03;4486927;31;33867;-80
2022/11/17 08:58:25;;;;;;;25.90;14.05;;;;;;;8.32;95.20;98581.28;4491596;31;33236;-80
2022/11/17 09:00:52;;;;;;;24.77;13.45;;;;;;;8.32;95.66;98570.97;4477640;32;32364;-81
2022/11/17 09:03:20;;;;;;;25.62;14.05;;;;;;;8.29;94.94;98570.91;4483507;31;32347;-80
2022/11/17 09:05:47;;;;;;;26.02;13.68;;;;;;;8.34;94.89;98564.16;4491044;31;33755;-82
2022/11/17 09:08:15;;;;;;;25.12;13.68;;;;;;;8.40;94.22;98564.41;4484477;31;33170;-81
2022/11/17 09:11:10;;;;;;;23.80;12.43;;;;;;;8.22;94.58;98564.62;4494279;31;33915;-81
2022/11/17 09:13:37;;;;;;;22.52;11.65;;;;;;;8.56;92.73;98570.97;4499287;31;34510;-82
2022/11/17 09:16:07;;;;;;;20.08;9.77;;;;;;;9.22;90.48;98570.47;4488191;31;34610;-81
2022/11/17 09:18:38;;;;;;;22.55;11.52;;;;;;;9.47;87.45;98576.37;4489759;31;33308;-80
2022/11/17 09:21:11;;;;;;;21.95;10.70;;;;;;;8.73;89.28;98584.44;4492598;31;34385;-82
2022/11/17 09:23:39;;;;;;;21.15;11.70;;;;;;;9.55;87.95;98590.37;4479907;31;33607;-82
2022/11/17 09:26:10;;;;;;;21.98;11.48;;;;;;;9.34;87.99;98579.41;4486282;31;33368;-81
2022/11/17 09:28:37;;;;;;;24.70;12.50;;;;;;;9.36;88.45;98577.75;4485680;31;34206;-82
2022/11/17 09:31:10;;;;;;;19.77;12.40;;;;;;;9.94;84.53;98589.75;4484685;31;34033;-81
2022/11/17 09:33:38;;;;;;;26.52;13.10;;;;;;;9.01;89.83;98583.59;4483426;31;33266;-81
2022/11/17 09:36:08;;;;;;;20.98;11.40;;;;;;;9.51;87.55;98570.44;4484939;31;33384;-80
2022/11/17 09:38:36;;;;;;;19.10;10.32;;;;;;;10.33;84.29;98573.56;4491019;31;33256;-81
2022/11/17 09:41:14;;;;;;;17.73;9.65;;;;;;;10.47;81.79;98575.66;4490135;31;34394;-81
2022/11/17 09:43:56;;;;;;;21.17;10.68;;;;;;;9.81;85.22;98573.03;4491863;31;34532;-80
2022/11/17 09:46:31;;;;;;;18.45;9.73;;;;;;;9.36;86.06;98570.00;4488656;31;33650;-81
2022/11/17 09:49:12;;;;;;;18.23;10.32;;;;;;;8.86;88.89;98567.59;4490484;31;33186;-81
2022/11/17 09:51:41;;;;;;;18.65;9.20;;;;;;;9.79;85.17;98563.47;4482755;31;34422;-82
2022/11/17 09:54:41;;;;;;;19.58;10.55;;;;;;;9.97;83.87;98558.81;4487844;31;34546;-81
2022/11/17 09:57:30;;;;;;;17.35;9.27;;;;;;;10.61;80.26;98564.81;4478454;31;34725;-81
2022/11/17 10:00:18;;;;;;;16.70;8.60;;;;;;;9.87;83.24;98559.41;4487103;31;33166;-81
2022/11/17 10:02:46;;;;;;;18.70;9.07;;;;;;;10.46;79.89;98553.19;4483786;31;33976;-81
2022/11/17 10:05:33;;;;;;;18.98;9.77;;;;;;;10.61;79.37;98548.41;4496827;31;33886;-82
2022/11/17 10:08:05;;;;;;;19.10;9.85;;;;;;;10.92;79.69;98549.12;4479420;31;34582;-81
2022/11/17 10:10:36;;;;;;;18.95;9.68;;;;;;;10.87;78.33;98542.97;4495910;31;33238;-81
2022/11/17 10:13:05;;;;;;;15.98;9.23;;;;;;;11.10;77.81;98551.25;4488149;31;33579;-80
2022/11/17 10:15:42;;;;;;;15.07;9.23;;;;;;;10.64;80.84;98548.47;4483608;32;33882;-81
2022/11/17 10:18:12;;;;;;;16.87;9.02;;;;;;;11.24;75.71;98551.56;4484069;31;34037;-81
2022/11/17 10:20:41;;;;;;;18.62;9.85;;;;;;;11.45;74.73;98553.75;4483669;31;33439;-81
2022/11/17 10:23:14;;;;;;;19.37;9.27;;;;;;;11.34;75.42;98549.22;4486009;31;33668;-80
2022/11/17 10:25:56;;;;;;;20.73;9.38;;;;;;;10.69;78.28;98544.28;4482803;31;33955;-82
2022/11/17 10:28:29;;;;;;;15.07;8.93;;;;;;;11.26;76.98;98539.50;4476249;31;33618;-80
2022/11/17 10:31:03;;;;;;;18.80;10.43;;;;;;;11.20;75.98;98541.16;4486912;31;32897;-81
2022/11/17 10:33:43;;;;;;;18.02;10.32;;;;;;;10.77;78.62;98550.50;4485298;31;33833;-80
2022/11/17 10:36:20;;;;;;;14.73;8.80;;;;;;;10.89;79.01;98538.69;4475702;31;33644;-82
2022/11/17 10:38:50;;;;;;;16.87;9.63;;;;;;;11.63;75.71;98540.28;4483308;31;34453;-81
2022/11/17 10:41:22;;;;;;;17.48;9.00;;;;;;;11.90;75.09;98542.56;4489788;31;34184;-81
2022/11/17 10:44:02;;;;;;;16.60;9.10;;;;;;;11.83;74.48;98543.28;4486471;31;34420;-81
2022/11/17 10:46:31;;;;;;;16.83;9.15;;;;;;;10.74;80.02;98549.56;4482247;31;34765;-83
2022/11/17 10:49:25;;;;;;;16.50;8.98;;;;;;;11.30;78.38;98554.28;4486718;31;34351;-81
2022/11/17 10:52:08;;;;;;;12.20;7.12;;;;;;;11.32;76.84;98547.41;4488670;31;33272;-80
2022/11/17 10:54:35;;;;;;;13.48;7.45;;;;;;;11.48;74.63;98554.69;4484406;32;34704;-82
2022/11/17 10:57:11;;;;;;;15.35;7.43;;;;;;;11.60;74.35;98557.53;4484718;31;34042;-81
2022/11/17 10:59:45;;;;;;;16.15;8.05;;;;;;;11.78;73.49;98550.97;4485120;31;33672;-81
2022/11/17 11:02:32;;;;;;;13.95;8.07;;;;;;;10.53;78.63;98550.81;4487876;31;33968;-81
2022/11/17 11:05:07;;;;;;;13.80;7.43;;;;;;;12.14;74.41;98555.16;4492624;31;33630;-81
2022/11/17 11:07:35;;;;;;;14.02;7.43;;;;;;;12.14;72.49;98544.78;4486151;31;33821;-81
2022/11/17 11:10:22;;;;;;;12.63;7.03;;;;;;;11.91;73.58;98550.41;4481121;31;33991;-81
2022/11/17 11:13:09;;;;;;;12.20;7.32;;;;;;;11.75;73.39;98540.53;4487960;31;33514;-80
2022/11/17 11:15:36;;;;;;;13.10;6.85;;;;;;;11.41;76.07;98534.66;4483373;32;34397;-81
2022/11/17 11:18:16;;;;;;;12.68;6.20;;;;;;;12.14;70.47;98526.59;4486281;31;33814;-80
2022/11/17 11:21:12;;;;;;;9.65;5.93;;;;;;;12.14;70.84;98526.59;4485761;31;34218;-80
2022/11/17 11:24:04;;;;;;;14.00;6.45;;;;;;;12.20;71.38;98529.28;4488813;31;33474;-82
2022/11/17 11:26:54;;;;;;;12.30;6.85;;;;;;;11.72;72.41;98535.28;4491205;31;33068;-81
2022/11/17 11:29:29;;;;;;;13.18;6.85;;;;;;;10.92;74.52;98536.19;4489979;31;33560;-82
2022/11/17 11:32:08;;;;;;;13.77;7.93;;;;;;;10.64;76.76;98540.69;4494247;31;34441;-80
2022/11/17 11:34:43;;;;;;;14.70;8.00;;;;;;;10.68;77.50;98545.13;4487713;31;33314;-81
2022/11/17 11:37:12;;;;;;;13.55;7.75;;;;;;;11.94;73.30;98545.28;4488460;31;34573;-80
2022/11/17 11:40:02;;;;;;;12.75;7.28;;;;;;;11.07;75.30;98536.53;4486962;31;33371;-79
2022/11/17 11:42:58;;;;;;;12.40;7.18;;;;;;;11.96;72.53;98540.13;4478976;32;33404;-81
2022/11/17 11:45:48;;;;;;;14.23;7.10;;;;;;;12.15;70.67;98538.75;4474117;32;33297;-81
2022/11/17 11:48:26;;;;;;;10.65;6.35;;;;;;;11.92;71.09;98543.50;4482023;31;33455;-80
2022/11/17 11:50:58;;;;;;;13.68;6.60;;;;;;;12.20;69.37;98534.50;4485344;31;33998;-80
2022/11/17 11:53:48;;;;;;;13.70;8.18;;;;;;;12.07;69.51;98529.91;4485528;31;34467;-82
2022/11/17 11:56:35;;;;;;;15.15;8.73;;;;;;;12.15;70.76;98530.97;4484892;31;33471;-80
2022/11/17 11:59:13;;;;;;;15.68;9.55;;;;;;;11.91;72.14;98529.63;4480715;31;33589;-81
2022/11/17 12:01:54;;;;;;;13.77;8.57;;;;;;;11.64;72.87;98531.66;4487609;31;33524;-80
2022/11/17 12:04:27;;;;;;;12.63;7.95;;;;;;;11.60;73.86;98538.50;4487121;31;33894;-81
2022/11/17 12:07:06;;;;;;;17.70;8.27;;;;;;;12.03;72.76;98533.31;4483594;32;33530;-80
2022/11/17 12:09:43;;;;;;;15.38;8.60;;;;;;;12.72;70.13;98535.38;4482869;31;34605;-82
2022/11/17 12:12:17;;;;;;;18.58;9.57;;;;;;;12.43;70.46;98542.69;4468497;32;32311;-81